Prescott, Wisconsin
Current Conditions -  °F | °C
As of 7:10 AM on Thursday 30 Oct 2014 (Local Time) from KSGS Reporting Station
Overcast Overcast  
Wind Chill: 39°   Ceiling: 5000
Heat Index: 39°   Visibility: 10mi
Dew Point: 34°   Wind: 0mph
Humidity: 80%   Direction: NA
Pressure: 30.05"   Gusts: NA
Location:  44.75°N, 92.8°W
Report Text: KSGS 301210Z AUTO 00000KT 10SM OVC050 04/01 A3005 RMK AO2 T00410009
Loading
Personal Weather Stations






























Interactive Weather Map
Tropical Storm Tracking
New forecast layout! Learn more

10-Day Weather Forecast

Advertisements
Track Severe Weather on mobile